Time;durP1;ratioP1;P1;durP2;ratioP2;P2;SDS_P1;SDS_P2;PMS_P1;PMS_P2;Temp;Humidity;BMP_temperature;BMP_pressure;BME280_temperature;BME280_humidity;BME280_pressure;Samples;Min_cycle;Max_cycle;Signal;HPM_P1;HPM_P2
2024/04/03 00:01:14;;;;;;;26.90;6.40;;;;;;;13.99;100.00;99563.41;105906;1256;62479;-77
2024/04/03 00:03:42;;;;;;;27.40;6.10;;;;;;;13.96;100.00;99556.64;105812;1259;72662;-77
2024/04/03 00:06:08;;;;;;;25.00;5.90;;;;;;;13.93;100.00;99560.45;105871;1256;61288;-77
2024/04/03 00:08:35;;;;;;;24.30;7.40;;;;;;;13.90;100.00;99550.69;105759;1256;61151;-76
2024/04/03 00:11:02;;;;;;;31.90;7.20;;;;;;;13.87;100.00;99542.45;105668;1256;61238;-77
2024/04/03 00:13:29;;;;;;;38.80;8.10;;;;;;;13.84;100.00;99543.25;105798;1255;63892;-76
2024/04/03 00:15:57;;;;;;;29.50;6.80;;;;;;;13.82;100.00;99545.03;106029;1256;72474;-74
2024/04/03 00:18:23;;;;;;;25.40;6.60;;;;;;;13.79;100.00;99548.12;105872;1257;61978;-75
2024/04/03 00:21:01;;;;;;;30.70;8.20;;;;;;;13.77;100.00;99544.45;106183;1256;61273;-75
2024/04/03 00:23:28;;;;;;;30.70;7.10;;;;;;;13.74;100.00;99547.76;108012;1255;73282;-75
2024/04/03 00:25:59;;;;;;;32.30;6.90;;;;;;;13.70;100.00;99546.30;107590;1253;63955;-76
2024/04/03 00:28:26;;;;;;;24.00;5.90;;;;;;;13.65;100.00;99553.41;106519;1254;72538;-77
2024/04/03 00:30:54;;;;;;;29.80;6.90;;;;;;;13.60;100.00;99556.84;105912;1265;62062;-78
2024/04/03 00:33:21;;;;;;;29.80;8.10;;;;;;;13.56;100.00;99564.91;105669;1257;61436;-78
2024/04/03 00:35:58;;;;;;;26.90;5.80;;;;;;;13.53;100.00;99553.67;105913;1257;74862;-76
2024/04/03 00:38:24;;;;;;;24.00;6.60;;;;;;;13.48;100.00;99552.69;105829;1255;63952;-76
2024/04/03 00:40:58;;;;;;;32.80;7.50;;;;;;;13.43;100.00;99549.59;105746;1257;72830;-77
2024/04/03 00:43:25;;;;;;;22.80;5.90;;;;;;;13.41;100.00;99556.67;105713;1258;61289;-78
2024/04/03 00:45:52;;;;;;;25.40;5.80;;;;;;;13.38;100.00;99556.73;105923;1256;61336;-75
2024/04/03 00:48:19;;;;;;;36.60;6.50;;;;;;;13.36;100.00;99584.45;105890;1256;74690;-76
2024/04/03 00:50:47;;;;;;;34.50;5.60;;;;;;;13.35;100.00;99578.41;105824;1256;63644;-76
2024/04/03 00:53:13;;;;;;;19.20;4.70;;;;;;;13.35;100.00;99567.05;105853;1255;72673;-77
2024/04/03 00:55:41;;;;;;;25.70;6.70;;;;;;;13.34;100.00;99554.60;105604;1254;61228;-78
2024/04/03 00:58:08;;;;;;;25.10;6.40;;;;;;;13.35;100.00;99563.49;106003;1258;61277;-75
2024/04/03 01:00:35;;;;;;;32.30;6.00;;;;;;;13.35;100.00;99557.70;107418;1255;74671;-77
2024/04/03 01:03:04;;;;;;;21.00;6.40;;;;;;;13.35;100.00;99558.79;105815;1257;62425;-78
2024/04/03 01:05:30;;;;;;;21.40;5.80;;;;;;;13.34;100.00;99571.69;105796;1256;72609;-75
2024/04/03 01:07:57;;;;;;;39.00;8.60;;;;;;;13.33;100.00;99575.30;105896;1253;61180;-77
2024/04/03 01:10:25;;;;;;;28.80;6.30;;;;;;;13.32;100.00;99572.73;105899;1254;61267;-77
2024/04/03 01:12:52;;;;;;;27.00;7.40;;;;;;;13.31;100.00;99578.55;105810;1254;73517;-76
2024/04/03 01:15:21;;;;;;;23.20;5.20;;;;;;;13.29;100.00;99579.96;105801;1257;63615;-75
2024/04/03 01:17:48;;;;;;;25.00;6.50;;;;;;;13.27;100.00;99584.50;105793;1256;72687;-75
2024/04/03 01:20:16;;;;;;;24.80;6.70;;;;;;;13.26;100.00;99583.73;105652;1266;62044;-75
2024/04/03 01:22:43;;;;;;;27.20;6.60;;;;;;;13.24;100.00;99581.25;105781;1254;61282;-77
2024/04/03 01:25:10;;;;;;;14.20;6.10;;;;;;;13.23;100.00;99574.04;105850;1251;74659;-76
2024/04/03 01:27:37;;;;;;;24.60;5.20;;;;;;;13.20;100.00;99565.65;105947;1255;63836;-76
2024/04/03 01:30:04;;;;;;;29.50;6.30;;;;;;;13.17;100.00;99568.02;105888;1256;72832;-75
2024/04/03 01:32:32;;;;;;;20.80;5.90;;;;;;;13.16;100.00;99576.58;105801;1257;61984;-77
2024/04/03 01:34:59;;;;;;;25.10;5.80;;;;;;;13.14;100.00;99568.13;105794;1251;61331;-76
2024/04/03 01:37:26;;;;;;;27.90;5.80;;;;;;;13.13;100.00;99571.23;105771;1257;74672;-76
2024/04/03 01:39:52;;;;;;;19.50;5.40;;;;;;;13.12;100.00;99572.55;105776;1256;61102;-76
2024/04/03 01:42:20;;;;;;;21.50;5.30;;;;;;;13.11;100.00;99580.50;105932;1251;72767;-76
2024/04/03 01:44:48;;;;;;;22.30;5.70;;;;;;;13.10;100.00;99588.52;106332;1256;61214;-75
2024/04/03 01:47:15;;;;;;;20.30;5.50;;;;;;;13.07;100.00;99593.46;105840;1256;61352;-75
2024/04/03 01:49:42;;;;;;;17.20;4.60;;;;;;;13.04;100.00;99599.83;105827;1255;74466;-75
2024/04/03 01:52:08;;;;;;;17.40;4.40;;;;;;;13.02;100.00;99598.59;105786;1256;63820;-77
2024/04/03 01:54:35;;;;;;;22.00;5.20;;;;;;;13.01;100.00;99594.69;105914;1255;70378;-75
2024/04/03 01:57:02;;;;;;;17.20;3.40;;;;;;;12.99;100.00;99593.23;105730;1255;61917;-77
2024/04/03 01:59:29;;;;;;;18.20;5.10;;;;;;;12.97;100.00;99594.90;105842;1251;61357;-75
2024/04/03 02:01:55;;;;;;;17.70;4.70;;;;;;;12.94;100.00;99600.75;105773;1251;61216;-75
2024/04/03 02:04:22;;;;;;;17.60;4.10;;;;;;;12.90;100.00;99603.88;105824;1256;63971;-76
2024/04/03 02:06:49;;;;;;;17.00;4.60;;;;;;;12.86;100.00;99605.08;105742;1256;72897;-77
2024/04/03 02:09:16;;;;;;;15.10;3.60;;;;;;;12.82;100.00;99617.73;105754;1256;61241;-78
2024/04/03 02:11:42;;;;;;;13.70;3.40;;;;;;;12.75;100.00;99621.97;105719;1251;61289;-76
2024/04/03 02:14:12;;;;;;;14.20;2.80;;;;;;;12.70;100.00;99624.88;105850;1256;61368;-77
2024/04/03 02:16:42;;;;;;;10.40;3.40;;;;;;;12.66;100.00;99633.60;105889;1251;63952;-76
2024/04/03 02:19:09;;;;;;;9.50;2.60;;;;;;;12.62;100.00;99631.67;105773;1251;71816;-76
2024/04/03 02:21:36;;;;;;;15.10;2.80;;;;;;;12.59;100.00;99641.20;105855;1257;61719;-76
2024/04/03 02:24:03;;;;;;;12.60;3.30;;;;;;;12.56;100.00;99641.65;105817;1255;61237;-75
2024/04/03 02:26:46;;;;;;;7.40;2.00;;;;;;;12.53;100.00;99649.45;106050;1256;74683;-74
2024/04/03 02:29:14;;;;;;;8.40;2.00;;;;;;;12.50;100.00;99653.08;106137;1256;62918;-77
2024/04/03 02:31:41;;;;;;;8.10;2.40;;;;;;;12.45;100.00;99658.36;106304;1257;71415;-74
2024/04/03 02:34:08;;;;;;;7.50;2.10;;;;;;;12.41;100.00;99658.13;106259;1257;61248;-75
2024/04/03 02:36:34;;;;;;;15.10;2.10;;;;;;;12.39;100.00;99653.44;105957;1255;61217;-73
2024/04/03 02:39:01;;;;;;;6.80;1.40;;;;;;;12.36;100.00;99654.21;105995;1256;61158;-74
2024/04/03 02:41:27;;;;;;;9.30;1.50;;;;;;;12.33;100.00;99662.31;105710;1257;63578;-76
2024/04/03 02:43:54;;;;;;;9.10;1.90;;;;;;;12.31;100.00;99665.99;105828;1251;70569;-79
2024/04/03 02:46:21;;;;;;;10.10;2.10;;;;;;;12.29;100.00;99673.89;105995;1253;61317;-75
2024/04/03 02:48:48;;;;;;;9.60;2.00;;;;;;;12.26;100.00;99680.92;106245;1251;61254;-75
2024/04/03 02:51:15;;;;;;;10.80;2.60;;;;;;;12.24;100.00;99686.04;106481;1251;74624;-73
2024/04/03 02:53:42;;;;;;;11.10;3.10;;;;;;;12.22;100.00;99689.73;107115;1251;62579;-73
2024/04/03 02:56:10;;;;;;;10.70;2.40;;;;;;;12.20;100.00;99689.45;106282;1255;71491;-76
2024/04/03 02:58:36;;;;;;;14.40;3.60;;;;;;;12.18;100.00;99691.43;106051;1255;61137;-76
2024/04/03 03:01:09;;;;;;;6.30;2.00;;;;;;;12.15;100.00;99699.87;105848;1255;61176;-78
2024/04/03 03:03:37;;;;;;;6.30;2.40;;;;;;;12.12;100.00;99713.65;105837;1255;74452;-74
2024/04/03 03:06:05;;;;;;;8.00;2.40;;;;;;;12.09;100.00;99718.46;105767;1256;64146;-78
2024/04/03 03:08:32;;;;;;;7.90;2.00;;;;;;;12.06;100.00;99728.37;105976;1251;72512;-79
2024/04/03 03:11:00;;;;;;;12.60;1.80;;;;;;;12.02;100.00;99733.67;105924;1251;61219;-77
2024/04/03 03:13:28;;;;;;;9.40;2.20;;;;;;;12.01;100.00;99744.33;106156;1256;61209;-73
2024/04/03 03:15:58;;;;;;;3.90;1.10;;;;;;;12.01;100.00;99745.91;105824;1251;73660;-77
2024/04/03 03:18:29;;;;;;;3.90;1.70;;;;;;;12.01;100.00;99750.75;105927;1256;65346;-77
2024/04/03 03:20:56;;;;;;;7.50;1.60;;;;;;;12.02;100.00;99751.92;105980;1251;72674;-78
2024/04/03 03:23:23;;;;;;;4.10;1.90;;;;;;;12.02;100.00;99752.27;106170;1256;61233;-75
2024/04/03 03:25:52;;;;;;;6.80;1.80;;;;;;;12.00;100.00;99756.27;107709;1251;61355;-76
2024/04/03 03:28:20;;;;;;;11.70;4.30;;;;;;;11.95;100.00;99765.82;106592;1255;73425;-77
2024/04/03 03:30:50;;;;;;;11.10;5.00;;;;;;;11.90;100.00;99772.52;105873;1251;63852;-77
2024/04/03 03:33:17;;;;;;;11.30;5.50;;;;;;;11.84;100.00;99771.42;106048;1251;71399;-76
2024/04/03 03:36:04;;;;;;;11.00;4.70;;;;;;;11.79;100.00;99771.20;105938;1257;61337;-77
2024/04/03 03:38:31;;;;;;;12.20;5.90;;;;;;;11.76;100.00;99770.56;105817;1251;61225;-76
2024/04/03 03:40:58;;;;;;;16.70;6.30;;;;;;;11.74;100.00;99782.50;105808;1256;74708;-76
2024/04/03 03:43:25;;;;;;;15.00;7.10;;;;;;;11.70;100.00;99787.02;105677;1251;62459;-76
2024/04/03 03:45:52;;;;;;;17.10;7.60;;;;;;;11.69;100.00;99784.44;105889;1251;72787;-78
2024/04/03 03:48:21;;;;;;;27.00;11.00;;;;;;;11.70;100.00;99796.14;105779;1255;61168;-77
2024/04/03 03:53:32;;;;;;;33.20;14.80;;;;;;;11.68;100.00;99798.53;105881;1251;73715;-79
2024/04/03 03:56:08;;;;;;;36.10;14.50;;;;;;;11.67;100.00;99800.91;105782;1255;61139;-76
2024/04/03 03:58:35;;;;;;;27.20;12.60;;;;;;;11.68;100.00;99803.80;106163;1251;72548;-78
2024/04/03 04:01:05;;;;;;;30.50;12.00;;;;;;;11.70;100.00;99805.38;105764;1255;61262;-78
2024/04/03 04:03:31;;;;;;;29.60;12.00;;;;;;;11.72;100.00;99810.11;105806;1253;61231;-79
2024/04/03 04:05:59;;;;;;;28.40;8.20;;;;;;;11.77;100.00;99815.02;105773;1251;73674;-78
2024/04/03 04:08:26;;;;;;;25.40;7.10;;;;;;;11.81;100.00;99813.62;105756;1256;64518;-79
2024/04/03 04:10:58;;;;;;;9.80;4.50;;;;;;;11.83;100.00;99818.20;105850;1251;72715;-78
2024/04/03 04:13:24;;;;;;;14.50;4.30;;;;;;;11.83;100.00;99831.36;105909;1251;61228;-77
2024/04/03 04:15:51;;;;;;;13.40;4.00;;;;;;;11.87;100.00;99838.94;105810;1255;61336;-78
2024/04/03 04:18:18;;;;;;;8.20;1.50;;;;;;;11.92;100.00;99841.33;105846;1256;74681;-76
2024/04/03 04:20:56;;;;;;;2.20;0.60;;;;;;;11.96;100.00;99848.73;105818;1256;63944;-76
2024/04/03 04:23:22;;;;;;;1.30;0.50;;;;;;;12.00;100.00;99847.92;105831;1256;72704;-77
2024/04/03 04:25:56;;;;;;;0.40;0.20;;;;;;;12.00;100.00;99847.73;105827;1251;61321;-77
2024/04/03 04:28:23;;;;;;;1.00;0.40;;;;;;;12.01;100.00;99858.99;106044;1251;61336;-75
2024/04/03 04:31:00;;;;;;;3.30;0.60;;;;;;;12.08;100.00;99862.91;105777;1252;74706;-77
2024/04/03 04:33:33;;;;;;;2.10;1.10;;;;;;;12.21;100.00;99868.38;105855;1256;64354;-78
2024/04/03 04:36:00;;;;;;;2.00;1.20;;;;;;;12.37;100.00;99864.84;105855;1251;72748;-78
2024/04/03 04:38:27;;;;;;;1.80;1.30;;;;;;;12.51;100.00;99865.30;105818;1253;61376;-77
2024/04/03 04:41:00;;;;;;;2.70;2.00;;;;;;;12.59;100.00;99868.45;105958;1251;61267;-77
2024/04/03 04:43:28;;;;;;;3.80;1.40;;;;;;;12.68;100.00;99873.73;106038;1257;74675;-77
2024/04/03 04:46:03;;;;;;;1.50;1.20;;;;;;;12.80;100.00;99878.90;106069;1251;62264;-78
2024/04/03 04:48:31;;;;;;;1.10;0.70;;;;;;;13.02;100.00;99882.41;105880;1251;72750;-78
2024/04/03 04:51:02;;;;;;;3.10;0.90;;;;;;;13.27;100.00;99881.88;105865;1256;61248;-77
2024/04/03 04:53:29;;;;;;;1.50;0.80;;;;;;;13.54;100.00;99879.32;105864;1251;61260;-78
2024/04/03 04:56:09;;;;;;;9.70;1.90;;;;;;;13.81;96.71;99883.16;106072;1255;74671;-78
2024/04/03 04:58:36;;;;;;;4.30;2.10;;;;;;;14.20;94.78;99886.85;105908;1251;62673;-75
2024/04/03 05:01:04;;;;;;;3.10;2.00;;;;;;;14.72;87.20;99888.82;105889;1251;72754;-77
2024/04/03 05:03:31;;;;;;;1.60;1.40;;;;;;;15.30;79.76;99890.51;105855;1252;61334;-77
2024/04/03 05:05:59;;;;;;;2.40;1.20;;;;;;;15.92;75.09;99896.87;105902;1251;61386;-77
2024/04/03 05:08:25;;;;;;;3.60;1.20;;;;;;;16.54;67.71;99901.77;105818;1251;74676;-79
2024/04/03 05:10:59;;;;;;;3.40;1.00;;;;;;;17.17;62.65;99905.23;105872;1251;63744;-76
2024/04/03 05:13:29;;;;;;;1.60;0.90;;;;;;;17.86;58.13;99901.46;105890;1257;71243;-76
2024/04/03 05:15:56;;;;;;;6.90;1.20;;;;;;;18.44;52.66;99899.56;105861;1251;61190;-77
2024/04/03 05:18:29;;;;;;;4.40;0.70;;;;;;;18.81;50.41;99899.36;106178;1253;61202;-77
2024/04/03 05:20:56;;;;;;;2.70;0.90;;;;;;;19.25;47.67;99904.60;106397;1252;74712;-76
2024/04/03 05:23:28;;;;;;;2.50;1.00;;;;;;;19.62;46.36;99906.20;105989;1257;64012;-79
2024/04/03 05:26:04;;;;;;;3.90;1.20;;;;;;;20.00;46.28;99902.98;105917;1257;71467;-79
2024/04/03 05:28:32;;;;;;;5.50;1.80;;;;;;;20.50;45.43;99911.22;106116;1255;61224;-78
2024/04/03 05:31:06;;;;;;;4.00;1.40;;;;;;;20.85;41.89;99919.11;105902;1251;61221;-78
2024/04/03 05:33:33;;;;;;;5.20;1.20;;;;;;;20.96;41.92;99919.60;105843;1256;74683;-79
2024/04/03 05:36:01;;;;;;;3.70;1.00;;;;;;;21.10;41.48;99923.71;105843;1255;62715;-78
2024/04/03 05:38:28;;;;;;;2.10;0.70;;;;;;;21.12;40.14;99933.54;105869;1251;73739;-78
2024/04/03 05:40:55;;;;;;;2.70;1.40;;;;;;;20.80;40.29;99939.84;105742;1255;61221;-78
2024/04/03 05:43:37;;;;;;;3.60;1.40;;;;;;;20.27;41.16;99943.80;105830;1255;61563;-78
2024/04/03 05:46:03;;;;;;;1.70;1.20;;;;;;;19.85;42.67;99944.24;105729;1251;74598;-78
2024/04/03 05:48:31;;;;;;;6.90;1.30;;;;;;;19.77;43.11;99951.77;105864;1255;63816;-78
2024/04/03 05:51:02;;;;;;;3.40;1.70;;;;;;;19.97;43.35;99950.90;105912;1253;72469;-78
2024/04/03 05:53:30;;;;;;;2.70;1.60;;;;;;;20.40;42.87;99957.84;105876;1255;61230;-78
2024/04/03 05:55:58;;;;;;;3.80;1.60;;;;;;;21.01;41.87;99957.34;105803;1251;61365;-75
2024/04/03 05:58:25;;;;;;;4.50;1.50;;;;;;;21.44;39.93;99964.30;105897;1255;73408;-78
2024/04/03 06:00:52;;;;;;;6.70;1.80;;;;;;;21.56;38.84;99971.69;105717;1251;62853;-78
2024/04/03 06:03:19;;;;;;;2.80;1.30;;;;;;;21.66;38.86;99977.00;105795;1257;72655;-77
2024/04/03 06:05:51;;;;;;;2.30;1.30;;;;;;;21.80;38.34;99974.58;105847;1256;61248;-77
2024/04/03 06:08:20;;;;;;;3.40;0.80;;;;;;;21.76;38.03;99976.41;105851;1255;61218;-77
2024/04/03 06:10:47;;;;;;;1.50;0.70;;;;;;;21.58;37.96;99975.96;106021;1255;74676;-76
2024/04/03 06:13:14;;;;;;;1.50;1.20;;;;;;;21.57;38.09;99975.98;106000;1251;64012;-78
2024/04/03 06:15:42;;;;;;;3.70;1.20;;;;;;;21.80;38.22;99972.34;105861;1251;72662;-78
2024/04/03 06:18:09;;;;;;;1.70;1.20;;;;;;;22.26;37.87;99964.61;105808;1251;61227;-78
2024/04/03 06:20:35;;;;;;;3.90;0.80;;;;;;;22.64;36.51;99968.95;106829;1251;261872;-79
2024/04/03 06:23:48;;;;;;;1.50;1.00;;;;;;;23.01;36.37;99964.69;105663;1290;600987;-77
2024/04/03 06:26:15;;;;;;;1.30;0.40;;;;;;;23.36;35.79;99968.48;105484;1271;62675;-79
2024/04/03 06:28:43;;;;;;;1.50;0.50;;;;;;;23.70;35.01;99973.36;104735;1266;61054;-79
2024/04/03 06:31:10;;;;;;;3.80;0.60;;;;;;;23.88;34.48;99974.14;104841;1266;73408;-78
2024/04/03 06:33:38;;;;;;;2.50;0.50;;;;;;;24.04;33.91;99975.52;104879;1270;63706;-79
2024/04/03 06:36:06;;;;;;;3.30;0.70;;;;;;;24.10;33.34;99981.33;104882;1270;73842;-80
2024/04/03 06:38:36;;;;;;;4.70;1.00;;;;;;;24.14;33.06;99976.75;105079;1266;219085;-76
2024/04/03 06:41:04;;;;;;;3.10;1.10;;;;;;;23.96;32.89;99981.70;104877;1263;61604;-79
2024/04/03 06:43:31;;;;;;;1.30;0.70;;;;;;;23.57;33.28;99984.11;105478;1269;73547;-76
2024/04/03 06:45:59;;;;;;;3.30;1.20;;;;;;;23.36;33.73;99990.23;105080;1262;64762;-79
2024/04/03 06:48:27;;;;;;;3.20;0.80;;;;;;;23.26;33.92;99982.91;104969;1265;74408;-79
2024/04/03 06:50:54;;;;;;;7.30;1.70;;;;;;;23.29;34.18;99995.05;104925;1266;61500;-79
2024/04/03 06:53:22;;;;;;;2.40;0.90;;;;;;;23.41;33.93;99998.88;105121;1263;60501;-78
2024/04/03 06:55:54;;;;;;;8.00;1.60;;;;;;;23.53;33.96;100000.34;105193;1262;74067;-76
2024/04/03 06:58:22;;;;;;;6.30;1.90;;;;;;;23.75;33.43;99997.95;105157;1268;64137;-79
2024/04/03 07:00:50;;;;;;;8.10;2.50;;;;;;;23.87;33.05;99991.23;105673;1253;70743;-80
2024/04/03 07:03:17;;;;;;;4.40;1.10;;;;;;;24.00;33.22;99984.86;105756;1257;60540;-78
2024/04/03 07:05:44;;;;;;;2.30;1.10;;;;;;;24.36;32.64;99985.36;105865;1252;62778;-78
2024/04/03 07:08:12;;;;;;;2.60;1.10;;;;;;;24.67;32.05;99984.77;105738;1253;72851;-78
2024/04/03 07:10:39;;;;;;;2.70;1.10;;;;;;;24.93;31.59;99987.13;105774;1253;63323;-78
2024/04/03 07:13:07;;;;;;;1.70;0.60;;;;;;;25.18;31.36;99983.70;105711;1256;74754;-78
2024/04/03 07:15:34;;;;;;;0.90;0.40;;;;;;;25.41;31.21;99990.98;105879;1253;61797;-78
2024/04/03 07:18:02;;;;;;;1.50;0.30;;;;;;;25.66;30.72;99985.14;105978;1253;61113;-80
2024/04/03 07:20:30;;;;;;;1.00;0.40;;;;;;;25.88;30.50;99991.30;105812;1253;73931;-78
2024/04/03 07:22:58;;;;;;;0.80;0.40;;;;;;;26.01;30.50;99997.42;105792;1257;65979;-77
2024/04/03 07:25:26;;;;;;;2.50;0.80;;;;;;;26.14;30.44;99998.69;105747;1256;73629;-77
2024/04/03 07:27:54;;;;;;;2.20;1.00;;;;;;;26.39;30.18;100004.80;105861;1257;60469;-80
2024/04/03 07:30:21;;;;;;;3.30;0.90;;;;;;;26.58;30.00;100011.54;105695;1253;60366;-78
2024/04/03 07:32:49;;;;;;;1.20;1.00;;;;;;;26.57;29.05;100020.11;105705;1253;75071;-77
2024/04/03 07:35:16;;;;;;;3.10;0.90;;;;;;;26.36;29.22;100018.42;105817;1253;64619;-79
2024/04/03 07:37:46;;;;;;;1.50;0.70;;;;;;;26.31;29.20;100017.01;105841;1255;72529;-79
2024/04/03 07:40:14;;;;;;;7.10;1.50;;;;;;;26.42;29.31;100018.23;106076;1257;61229;-76
2024/04/03 07:42:43;;;;;;;3.70;0.80;;;;;;;26.72;29.18;100015.15;105827;1257;62529;-80
2024/04/03 07:45:11;;;;;;;2.90;0.80;;;;;;;27.09;28.82;100017.60;106094;1253;76311;-77
2024/04/03 07:47:39;;;;;;;8.60;4.10;;;;;;;27.44;28.74;100018.45;106252;1253;64929;-77
2024/04/03 07:50:07;;;;;;;4.30;1.10;;;;;;;27.68;28.78;100022.33;106149;1257;71817;-77
2024/04/03 07:52:37;;;;;;;3.50;1.60;;;;;;;27.84;27.80;100023.72;106340;1253;60460;-77
2024/04/03 07:55:06;;;;;;;4.80;1.30;;;;;;;27.89;27.87;100026.59;105974;1251;60550;-76
2024/04/03 07:57:34;;;;;;;6.90;1.70;;;;;;;28.03;26.88;100028.38;105857;1253;74139;-77
2024/04/03 08:00:04;;;;;;;3.50;1.60;;;;;;;28.16;27.28;100033.06;105730;1251;63684;-79
2024/04/03 08:02:37;;;;;;;3.20;1.50;;;;;;;28.37;26.91;100040.45;106022;1256;74828;-78
2024/04/03 08:05:09;;;;;;;3.90;1.20;;;;;;;28.46;26.63;100033.81;105853;1254;60533;-78
2024/04/03 08:07:36;;;;;;;4.60;1.40;;;;;;;28.44;26.94;100014.37;105860;1257;60327;-76
2024/04/03 08:10:07;;;;;;;2.80;0.60;;;;;;;28.40;26.51;100003.23;105769;1253;73466;-78
2024/04/03 08:12:36;;;;;;;0.90;0.50;;;;;;;28.27;26.58;99995.00;105830;1251;62496;-77
2024/04/03 08:15:05;;;;;;;4.90;0.80;;;;;;;28.41;26.49;100008.67;105814;1251;72334;-80
2024/04/03 08:17:32;;;;;;;3.80;0.90;;;;;;;28.49;26.42;100005.86;105980;1256;60541;-79
2024/04/03 08:20:00;;;;;;;3.20;0.60;;;;;;;28.54;26.25;99998.02;105774;1251;60551;-78
2024/04/03 08:22:27;;;;;;;3.60;0.70;;;;;;;28.61;26.69;99997.52;105910;1253;73805;-77
2024/04/03 08:24:55;;;;;;;2.80;1.10;;;;;;;28.73;26.13;99980.14;106001;1252;63895;-76
2024/04/03 08:27:22;;;;;;;1.70;1.00;;;;;;;28.84;26.46;99979.98;105861;1257;73341;-77
2024/04/03 08:29:53;;;;;;;5.60;0.80;;;;;;;29.06;26.28;99985.81;105863;1253;61002;-77
2024/04/03 08:32:21;;;;;;;6.60;0.60;;;;;;;29.28;25.69;99981.60;105677;1257;62152;-79
2024/04/03 08:34:51;;;;;;;6.80;2.60;;;;;;;29.45;25.19;99983.59;105722;1257;73456;-78
2024/04/03 08:37:22;;;;;;;2.50;0.80;;;;;;;29.68;24.76;99974.26;105815;1251;62751;-80
2024/04/03 08:39:52;;;;;;;2.00;1.20;;;;;;;29.76;24.61;99975.02;105799;1257;73562;-77
2024/04/03 08:42:20;;;;;;;2.50;0.90;;;;;;;29.76;24.66;99970.21;105750;1257;60445;-78
2024/04/03 08:44:48;;;;;;;3.60;1.40;;;;;;;29.81;25.18;99971.27;105809;1256;60357;-78
2024/04/03 08:47:16;;;;;;;0.60;0.60;;;;;;;29.94;24.94;99975.73;105766;1251;73956;-78
2024/04/03 08:49:43;;;;;;;3.40;0.80;;;;;;;29.94;24.29;99974.97;105668;1251;62692;-78
2024/04/03 08:52:11;;;;;;;3.90;1.00;;;;;;;29.94;24.24;99983.02;105738;1257;72384;-78
2024/04/03 08:54:39;;;;;;;4.40;0.60;;;;;;;29.83;23.90;99984.17;105806;1257;60538;-76
2024/04/03 08:57:07;;;;;;;3.40;0.50;;;;;;;29.69;24.01;99998.45;106109;1255;60487;-77
2024/04/03 08:59:38;;;;;;;1.80;0.90;;;;;;;29.62;24.34;99999.50;105886;1256;75830;-78
2024/04/03 09:02:06;;;;;;;1.20;0.90;;;;;;;29.29;24.29;99995.35;105759;1251;65842;-76
2024/04/03 09:04:33;;;;;;;4.10;1.00;;;;;;;29.01;24.65;99991.52;105876;1252;75362;-76
2024/04/03 09:07:01;;;;;;;0.70;0.70;;;;;;;28.72;25.21;99997.27;105781;1256;61072;-79
2024/04/03 09:09:30;;;;;;;3.10;0.90;;;;;;;28.35;25.04;99997.38;105868;1257;60582;-78
2024/04/03 09:12:02;;;;;;;3.70;1.20;;;;;;;27.95;25.43;99998.64;105845;1251;75952;-78
2024/04/03 09:14:29;;;;;;;1.10;0.90;;;;;;;27.74;25.99;99993.96;105940;1253;63769;-77
2024/04/03 09:17:01;;;;;;;2.50;2.30;;;;;;;27.65;26.15;99991.56;105863;1251;74363;-76
2024/04/03 09:19:31;;;;;;;4.90;2.10;;;;;;;27.60;25.95;99988.66;105751;1257;60513;-78
2024/04/03 09:21:59;;;;;;;6.00;3.30;;;;;;;27.68;26.58;99990.10;105716;1251;61097;-77
2024/04/03 09:24:27;;;;;;;2.70;1.30;;;;;;;27.72;26.13;99987.20;105748;1252;73668;-78
2024/04/03 09:26:56;;;;;;;5.70;1.60;;;;;;;27.70;26.21;99993.02;105654;1257;64614;-77
2024/04/03 09:29:24;;;;;;;3.60;1.30;;;;;;;27.65;26.19;99986.34;105773;1257;72744;-78
2024/04/03 09:31:52;;;;;;;5.20;1.10;;;;;;;27.72;26.45;99985.00;105849;1256;60563;-77
2024/04/03 09:34:20;;;;;;;4.00;1.50;;;;;;;27.72;26.37;99985.28;105884;1256;60421;-78
2024/04/03 09:36:47;;;;;;;8.40;2.20;;;;;;;27.67;26.68;99987.11;105662;1251;75331;-75
2024/04/03 09:39:15;;;;;;;2.60;1.60;;;;;;;27.66;26.67;99993.59;105695;1256;64612;-77
2024/04/03 09:41:42;;;;;;;5.00;1.30;;;;;;;27.60;27.01;99999.81;105705;1254;74765;-78
2024/04/03 09:44:09;;;;;;;2.80;1.00;;;;;;;27.70;26.21;99996.02;105958;1256;60540;-77
2024/04/03 09:46:46;;;;;;;3.10;1.50;;;;;;;27.74;25.95;99990.38;105915;1256;61081;-77
2024/04/03 09:49:14;;;;;;;2.50;1.10;;;;;;;27.94;26.26;100002.66;105769;1251;73663;-77
2024/04/03 09:51:41;;;;;;;1.40;1.20;;;;;;;28.11;25.52;100005.66;105712;1253;63851;-79
2024/04/03 09:54:10;;;;;;;2.30;1.30;;;;;;;28.27;25.62;99994.83;106056;1256;72780;-77
2024/04/03 09:56:38;;;;;;;2.90;1.60;;;;;;;28.44;25.50;99990.63;105843;1251;60716;-77
2024/04/03 09:59:10;;;;;;;6.30;3.20;;;;;;;28.50;25.83;99992.33;105929;1256;61069;-78
2024/04/03 10:01:39;;;;;;;10.60;5.70;;;;;;;28.42;25.33;99992.93;105756;1253;75125;-79
2024/04/03 10:04:08;;;;;;;5.20;3.80;;;;;;;28.41;25.63;99985.73;105696;1258;65704;-79
2024/04/03 10:06:36;;;;;;;7.70;2.70;;;;;;;28.48;25.34;99983.84;105789;1257;75047;-77
2024/04/03 10:09:15;;;;;;;7.30;2.70;;;;;;;28.44;25.10;99980.55;105707;1257;61136;-78
2024/04/03 10:11:52;;;;;;;5.00;1.70;;;;;;;28.22;25.04;99986.79;105785;1252;61491;-78
2024/04/03 10:14:26;;;;;;;3.90;1.10;;;;;;;27.83;25.29;99985.24;105863;1253;74148;-78
2024/04/03 10:16:54;;;;;;;3.20;1.00;;;;;;;27.62;25.09;99991.05;105801;1251;64793;-79
2024/04/03 10:19:22;;;;;;;3.20;1.00;;;;;;;27.25;25.06;99988.86;105761;1258;72006;-78
2024/04/03 10:21:49;;;;;;;1.00;0.70;;;;;;;26.99;25.29;99989.25;105891;1256;60530;-77
2024/04/03 10:24:19;;;;;;;6.20;2.60;;;;;;;26.88;25.82;99984.08;105792;1251;60522;-78
2024/04/03 10:26:47;;;;;;;2.40;1.50;;;;;;;26.94;26.25;99993.77;105799;1251;72385;-78
2024/04/03 10:29:15;;;;;;;3.90;1.60;;;;;;;26.88;25.55;99994.42;105779;1258;63529;-76
2024/04/03 10:31:46;;;;;;;4.90;2.00;;;;;;;26.49;25.86;99994.73;105744;1253;70919;-76
2024/04/03 10:34:20;;;;;;;3.40;1.50;;;;;;;26.11;26.16;99999.16;105774;1257;61327;-77
2024/04/03 10:36:48;;;;;;;3.60;2.00;;;;;;;25.85;27.01;100002.09;105806;1253;61151;-79
2024/04/03 10:39:15;;;;;;;4.90;1.70;;;;;;;25.74;27.02;99998.90;105947;1252;75461;-79
2024/04/03 10:41:43;;;;;;;3.50;1.40;;;;;;;25.72;27.02;100003.70;105654;1253;63477;-78
2024/04/03 10:44:16;;;;;;;6.50;1.50;;;;;;;25.89;26.86;100000.64;105625;1258;72218;-78
2024/04/03 10:46:43;;;;;;;4.90;1.50;;;;;;;26.13;26.31;100001.92;105750;1253;61314;-80
2024/04/03 10:49:10;;;;;;;3.00;1.10;;;;;;;26.12;26.04;100003.65;105829;1257;61147;-79
2024/04/03 10:51:38;;;;;;;1.40;0.60;;;;;;;25.99;25.68;100003.09;105778;1253;73484;-78
2024/04/03 10:54:05;;;;;;;4.50;1.30;;;;;;;25.64;25.70;100009.52;105791;1251;65054;-75
2024/04/03 10:56:33;;;;;;;6.80;1.20;;;;;;;25.20;26.20;100011.99;105961;1252;72651;-77
2024/04/03 10:59:01;;;;;;;3.90;1.10;;;;;;;25.02;26.69;100012.49;105713;1253;61296;-77
2024/04/03 11:01:29;;;;;;;3.20;1.00;;;;;;;24.91;26.77;100008.87;105815;1251;62531;-77
2024/04/03 11:03:58;;;;;;;1.50;0.90;;;;;;;24.86;26.80;100005.23;105825;1257;74206;-79
2024/04/03 11:06:25;;;;;;;4.30;0.90;;;;;;;25.04;26.63;100011.35;105714;1257;64746;-80
2024/04/03 11:08:52;;;;;;;2.30;1.00;;;;;;;25.07;26.46;100020.86;105677;1254;72202;-80
2024/04/03 11:11:21;;;;;;;8.40;1.60;;;;;;;25.09;26.44;100021.73;105707;1253;62613;-75
2024/04/03 11:13:48;;;;;;;6.30;1.10;;;;;;;25.12;26.73;100015.39;105742;1251;61279;-77
2024/04/03 11:16:22;;;;;;;2.10;0.70;;;;;;;25.35;26.35;100012.71;105711;1258;74922;-77
2024/04/03 11:18:50;;;;;;;0.80;0.60;;;;;;;25.71;25.48;100012.53;105721;1251;64753;-78
2024/04/03 11:21:17;;;;;;;3.70;0.70;;;;;;;25.90;25.60;100018.42;105682;1258;75301;-77
2024/04/03 11:23:45;;;;;;;2.70;0.90;;;;;;;26.05;25.43;100020.20;105795;1253;61230;-77
2024/04/03 11:26:14;;;;;;;1.60;0.50;;;;;;;26.16;25.13;100017.63;105829;1253;61285;-79